Time;durP1;ratioP1;P1;durP2;ratioP2;P2;SDS_P1;SDS_P2;PMS_P1;PMS_P2;Temp;Humidity;BMP_temperature;BMP_pressure;BME280_temperature;BME280_humidity;BME280_pressure;Samples;Min_cycle;Max_cycle;Signal;HPM_P1;HPM_P2
2022/03/20 00:02:20;;;;;;;5.40;3.10;;;;;;;;;;5057555;28;20040;-80
2022/03/20 00:04:45;;;;;;;5.07;2.70;;;;;;;;;;5057668;28;20028;-80
2022/03/20 00:07:11;;;;;;;5.20;3.08;;;;;;;;;;5091059;28;20059;-80
2022/03/20 00:09:38;;;;;;;4.18;2.65;;;;;;;;;;5074171;28;20024;-80
2022/03/20 00:12:04;;;;;;;3.80;2.28;;;;;;;;;;5057821;28;20559;-79
2022/03/20 00:14:30;;;;;;;4.95;3.13;;;;;;;;;;5091030;28;20030;-80
2022/03/20 00:16:55;;;;;;;5.05;3.28;;;;;;;;;;5057304;28;20406;-80
2022/03/20 00:19:21;;;;;;;4.50;2.95;;;;;;;;;;5073960;28;20075;-80
2022/03/20 00:21:46;;;;;;;5.22;2.92;;;;;;;;;;5073521;28;20453;-80
2022/03/20 00:24:12;;;;;;;3.97;2.85;;;;;;;;;;5073987;28;20105;-80
2022/03/20 00:26:39;;;;;;;4.32;3.05;;;;;;;;;;5057531;28;20040;-80
2022/03/20 00:29:06;;;;;;;5.18;2.58;;;;;;;;;;5074528;28;20028;-80
2022/03/20 00:31:33;;;;;;;4.28;2.67;;;;;;;;;;5074052;28;20040;-80
2022/03/20 00:33:59;;;;;;;4.00;2.55;;;;;;;;;;5090375;28;20096;-80
2022/03/20 00:36:25;;;;;;;5.15;3.20;;;;;;;;;;5072464;28;20036;-80
2022/03/20 00:38:50;;;;;;;3.78;2.60;;;;;;;;;;5073653;28;20098;-80
2022/03/20 00:41:16;;;;;;;4.18;2.63;;;;;;;;;;5057751;28;20108;-80
2022/03/20 00:43:41;;;;;;;4.30;2.67;;;;;;;;;;5073673;28;20032;-80
2022/03/20 00:46:08;;;;;;;4.80;2.65;;;;;;;;;;5073673;28;20040;-80
2022/03/20 00:48:34;;;;;;;4.45;2.88;;;;;;;;;;5074003;28;20036;-80
2022/03/20 00:51:03;;;;;;;4.43;2.92;;;;;;;;;;5075893;28;20101;-80
2022/03/20 00:53:32;;;;;;;4.43;2.85;;;;;;;;;;5061452;28;20088;-81
2022/03/20 00:55:57;;;;;;;4.03;2.60;;;;;;;;;;5060673;28;20036;-79
2022/03/20 00:58:22;;;;;;;3.92;2.58;;;;;;;;;;5077107;28;20502;-80
2022/03/20 01:00:50;;;;;;;4.05;2.88;;;;;;;;;;5060253;28;20093;-80
2022/03/20 01:03:16;;;;;;;4.60;2.90;;;;;;;;;;5057364;28;20066;-80
2022/03/20 01:05:41;;;;;;;3.53;2.60;;;;;;;;;;5073355;28;20414;-80
2022/03/20 01:08:07;;;;;;;5.43;3.45;;;;;;;;;;5072950;28;20410;-80
2022/03/20 01:10:32;;;;;;;3.55;2.60;;;;;;;;;;5073794;28;20040;-80
2022/03/20 01:12:58;;;;;;;5.03;2.88;;;;;;;;;;5040099;28;20448;-80
2022/03/20 01:15:23;;;;;;;4.95;3.15;;;;;;;;;;5057082;28;20494;-80
2022/03/20 01:17:49;;;;;;;5.53;3.38;;;;;;;;;;5040199;28;20032;-80
2022/03/20 01:20:14;;;;;;;4.00;2.90;;;;;;;;;;5073186;28;20040;-80
2022/03/20 01:22:40;;;;;;;3.63;2.50;;;;;;;;;;5073087;28;20057;-80
2022/03/20 01:25:06;;;;;;;3.55;2.30;;;;;;;;;;5090528;28;20040;-80
2022/03/20 01:27:32;;;;;;;5.07;3.13;;;;;;;;;;5039963;28;20052;-80
2022/03/20 01:29:58;;;;;;;4.65;3.05;;;;;;;;;;5056935;28;20453;-80
2022/03/20 01:32:26;;;;;;;3.78;2.78;;;;;;;;;;5040216;28;20032;-80
2022/03/20 01:34:52;;;;;;;4.65;2.90;;;;;;;;;;5059346;28;20032;-80
2022/03/20 01:37:18;;;;;;;4.45;3.00;;;;;;;;;;5056636;28;20039;-80
2022/03/20 01:39:43;;;;;;;4.15;2.80;;;;;;;;;;5056665;28;20483;-80
2022/03/20 01:42:08;;;;;;;3.80;2.90;;;;;;;;;;5056633;28;20494;-80
2022/03/20 01:44:35;;;;;;;3.53;2.67;;;;;;;;;;5073348;28;20402;-80
2022/03/20 01:47:00;;;;;;;4.53;3.30;;;;;;;;;;5042093;28;20180;-80
2022/03/20 01:49:26;;;;;;;3.85;2.72;;;;;;;;;;5077053;28;20039;-80
2022/03/20 01:54:36;;;;;;;5.43;3.03;;;;;;;;;;5079568;28;20036;-80
2022/03/20 01:57:02;;;;;;;3.53;2.92;;;;;;;;;;5060569;28;20044;-80
2022/03/20 01:59:27;;;;;;;6.57;3.33;;;;;;;;;;5069999;28;20040;-80
2022/03/20 02:01:53;;;;;;;4.65;3.13;;;;;;;;;;5079873;28;20046;-80
2022/03/20 02:04:19;;;;;;;4.15;2.95;;;;;;;;;;5063318;28;20058;-80
2022/03/20 02:06:44;;;;;;;3.80;3.00;;;;;;;;;;5079762;28;20122;-80
2022/03/20 02:09:10;;;;;;;4.70;2.70;;;;;;;;;;5080172;28;20036;-80
2022/03/20 02:11:35;;;;;;;4.60;3.20;;;;;;;;;;5080202;28;20032;-80
2022/03/20 02:14:02;;;;;;;4.22;2.72;;;;;;;;;;5096964;28;20528;-80
2022/03/20 02:16:28;;;;;;;4.18;3.00;;;;;;;;;;5079713;28;20040;-80
2022/03/20 02:18:54;;;;;;;4.07;3.08;;;;;;;;;;5079620;28;20047;-80
2022/03/20 02:21:46;;;;;;;4.30;3.03;;;;;;;;;;5096416;28;20036;-80
2022/03/20 02:24:31;;;;;;;4.50;3.33;;;;;;;;;;5085563;28;20421;-80
2022/03/20 02:27:04;;;;;;;3.95;3.00;;;;;;;;;;5096601;28;20515;-80
2022/03/20 02:29:30;;;;;;;4.78;2.95;;;;;;;;;;5080142;28;20043;-80
2022/03/20 02:31:56;;;;;;;3.47;2.80;;;;;;;;;;5096418;28;20690;-80
2022/03/20 02:34:22;;;;;;;3.60;2.90;;;;;;;;;;5079831;28;20046;-80
2022/03/20 02:36:47;;;;;;;4.15;3.25;;;;;;;;;;5078999;28;20075;-80
2022/03/20 02:39:13;;;;;;;5.65;3.60;;;;;;;;;;5062848;28;20105;-80
2022/03/20 02:41:38;;;;;;;5.05;3.40;;;;;;;;;;5079488;28;20039;-80
2022/03/20 02:44:04;;;;;;;5.00;3.33;;;;;;;;;;5062830;28;20040;-79
2022/03/20 02:46:32;;;;;;;4.65;3.30;;;;;;;;;;5079049;28;20027;-80
2022/03/20 02:48:58;;;;;;;4.93;3.63;;;;;;;;;;5080041;28;20047;-80
2022/03/20 02:51:24;;;;;;;4.93;3.33;;;;;;;;;;5075408;28;20445;-80
2022/03/20 02:53:49;;;;;;;5.07;3.22;;;;;;;;;;5059048;28;20395;-80
2022/03/20 02:56:14;;;;;;;4.43;3.58;;;;;;;;;;5058896;28;20040;-80
2022/03/20 02:58:40;;;;;;;4.82;3.17;;;;;;;;;;5078018;28;20083;-80
2022/03/20 03:01:06;;;;;;;6.30;3.42;;;;;;;;;;5060964;28;20403;-80
2022/03/20 03:03:31;;;;;;;4.65;3.33;;;;;;;;;;5059085;28;20039;-80
2022/03/20 03:05:58;;;;;;;4.35;3.60;;;;;;;;;;5041923;28;20452;-80
2022/03/20 03:11:09;;;;;;;4.75;3.58;;;;;;;;;;5078600;28;20044;-80
2022/03/20 03:13:36;;;;;;;4.60;3.33;;;;;;;;;;5059076;28;20035;-80
2022/03/20 03:16:13;;;;;;;3.92;3.28;;;;;;;;;;5042026;28;20032;-80
2022/03/20 03:18:39;;;;;;;5.03;3.55;;;;;;;;;;5058508;28;20085;-80
2022/03/20 03:21:05;;;;;;;4.80;3.72;;;;;;;;;;5042061;28;20088;-80
2022/03/20 03:23:30;;;;;;;6.18;3.90;;;;;;;;;;5041921;28;20499;-80
2022/03/20 03:25:56;;;;;;;4.95;4.05;;;;;;;;;;5058522;28;20458;-80
2022/03/20 03:28:22;;;;;;;5.25;3.35;;;;;;;;;;5041743;28;20398;-80
2022/03/20 03:30:48;;;;;;;4.75;3.90;;;;;;;;;;5058722;28;20040;-80
2022/03/20 03:33:14;;;;;;;5.90;3.90;;;;;;;;;;5058194;28;20103;-80
2022/03/20 03:35:42;;;;;;;6.22;3.60;;;;;;;;;;5050553;28;20044;-80
2022/03/20 03:38:19;;;;;;;5.43;3.80;;;;;;;;;;5075278;28;20024;-80
2022/03/20 03:40:45;;;;;;;5.13;3.88;;;;;;;;;;5075430;28;20096;-80
2022/03/20 03:43:11;;;;;;;4.28;3.70;;;;;;;;;;5075056;28;20032;-80
2022/03/20 03:45:40;;;;;;;5.90;3.67;;;;;;;;;;5074755;28;20085;-80
2022/03/20 03:48:06;;;;;;;4.40;3.90;;;;;;;;;;5058412;28;20050;-80
2022/03/20 03:50:32;;;;;;;4.30;3.70;;;;;;;;;;5074602;28;20040;-80
2022/03/20 03:52:57;;;;;;;4.68;3.83;;;;;;;;;;5090799;28;20024;-80
2022/03/20 03:55:23;;;;;;;4.90;4.05;;;;;;;;;;5058046;28;20406;-80
2022/03/20 03:57:49;;;;;;;5.20;4.43;;;;;;;;;;5069968;28;20776;-80
2022/03/20 04:00:16;;;;;;;5.13;3.92;;;;;;;;;;5091511;28;20043;-80
2022/03/20 04:02:41;;;;;;;5.03;3.60;;;;;;;;;;5052053;28;20561;-80
2022/03/20 04:05:07;;;;;;;5.07;3.72;;;;;;;;;;5074308;28;20107;-80
2022/03/20 04:07:33;;;;;;;5.65;3.88;;;;;;;;;;5091244;28;20066;-80
2022/03/20 04:10:00;;;;;;;4.85;3.97;;;;;;;;;;5073302;28;20522;-80
2022/03/20 04:12:26;;;;;;;4.70;4.03;;;;;;;;;;5074243;28;20024;-80
2022/03/20 04:14:52;;;;;;;6.25;4.63;;;;;;;;;;5091722;28;20071;-80
2022/03/20 04:17:17;;;;;;;5.55;3.83;;;;;;;;;;5073887;28;20165;-80
2022/03/20 04:19:42;;;;;;;5.70;3.90;;;;;;;;;;5090398;28;20498;-80
2022/03/20 04:22:08;;;;;;;5.20;3.95;;;;;;;;;;5074403;28;20101;-80
2022/03/20 04:24:36;;;;;;;6.18;4.03;;;;;;;;;;5074074;28;20387;-80
2022/03/20 04:27:03;;;;;;;5.38;4.00;;;;;;;;;;5074620;28;20036;-80
2022/03/20 04:29:28;;;;;;;5.68;4.88;;;;;;;;;;5074035;28;20093;-80
2022/03/20 04:31:54;;;;;;;6.32;4.85;;;;;;;;;;5090382;28;20040;-80
2022/03/20 04:34:21;;;;;;;5.38;4.40;;;;;;;;;;5075078;28;20043;-80
2022/03/20 04:36:46;;;;;;;5.13;4.28;;;;;;;;;;5094507;28;20505;-80
2022/03/20 04:39:11;;;;;;;5.30;4.70;;;;;;;;;;5077196;28;20074;-81
2022/03/20 04:41:37;;;;;;;6.43;4.63;;;;;;;;;;5060730;28;20409;-80
2022/03/20 04:44:04;;;;;;;6.32;4.30;;;;;;;;;;5094165;28;20086;-81
2022/03/20 04:46:29;;;;;;;5.20;4.28;;;;;;;;;;5076857;28;20042;-80
2022/03/20 04:59:50;;;;;;;5.68;4.22;;;;;;;;;;5090703;28;20032;-80
2022/03/20 05:02:16;;;;;;;5.70;4.25;;;;;;;;;;5064299;28;20494;-80
2022/03/20 05:04:41;;;;;;;5.05;4.07;;;;;;;;;;5056964;28;20043;-80
2022/03/20 05:07:07;;;;;;;4.55;3.80;;;;;;;;;;5040030;28;20107;-80
2022/03/20 05:15:08;;;;;;;5.95;4.82;;;;;;;;;;5075591;28;20032;-81
2022/03/20 05:17:34;;;;;;;5.82;4.50;;;;;;;;;;5073474;28;20106;-80
2022/03/20 05:19:59;;;;;;;5.53;4.18;;;;;;;;;;5040468;28;20062;-80
2022/03/20 05:22:25;;;;;;;6.47;4.60;;;;;;;;;;5077403;28;20039;-80
2022/03/20 05:24:50;;;;;;;5.78;4.32;;;;;;;;;;5060775;28;20047;-80
2022/03/20 05:27:16;;;;;;;6.70;5.05;;;;;;;;;;5043945;28;20031;-80
2022/03/20 05:29:41;;;;;;;6.10;4.60;;;;;;;;;;5077050;28;20051;-80
2022/03/20 05:32:07;;;;;;;5.50;4.65;;;;;;;;;;5060756;28;20092;-80
2022/03/20 05:34:33;;;;;;;6.43;4.82;;;;;;;;;;5063416;28;20524;-81
2022/03/20 05:36:59;;;;;;;5.80;4.60;;;;;;;;;;5080633;28;20032;-80
2022/03/20 05:39:25;;;;;;;5.10;4.25;;;;;;;;;;5097939;28;20036;-80
2022/03/20 05:41:51;;;;;;;6.75;4.60;;;;;;;;;;5080416;28;20034;-81
2022/03/20 05:44:19;;;;;;;5.35;4.25;;;;;;;;;;5063811;28;20172;-81
2022/03/20 05:46:51;;;;;;;5.40;4.78;;;;;;;;;;5080744;28;20039;-81
2022/03/20 05:49:20;;;;;;;6.50;4.50;;;;;;;;;;5097115;28;20032;-80
2022/03/20 05:51:46;;;;;;;7.30;5.28;;;;;;;;;;5076382;28;20032;-80
2022/03/20 05:54:12;;;;;;;5.40;4.20;;;;;;;;;;5043688;28;20044;-81
2022/03/20 05:59:21;;;;;;;5.55;4.60;;;;;;;;;;5093332;28;20040;-81
2022/03/20 06:01:51;;;;;;;5.72;4.82;;;;;;;;;;5044642;28;20039;-81
2022/03/20 06:04:19;;;;;;;7.53;5.28;;;;;;;;;;5074569;28;20464;-80
2022/03/20 06:06:45;;;;;;;6.53;4.55;;;;;;;;;;5059162;28;20031;-80
2022/03/20 06:09:10;;;;;;;7.03;5.22;;;;;;;;;;5059942;28;20071;-81
2022/03/20 06:11:36;;;;;;;10.23;4.72;;;;;;;;;;5060331;28;20531;-80
2022/03/20 06:14:03;;;;;;;6.40;4.05;;;;;;;;;;5060148;28;20067;-81
2022/03/20 06:16:29;;;;;;;7.38;4.95;;;;;;;;;;5093286;28;20532;-81
2022/03/20 06:18:55;;;;;;;6.55;4.82;;;;;;;;;;5076356;28;20044;-80
2022/03/20 06:21:20;;;;;;;6.00;4.60;;;;;;;;;;5059657;28;20032;-80
2022/03/20 06:23:46;;;;;;;7.32;4.22;;;;;;;;;;5059848;28;20043;-81
2022/03/20 06:26:11;;;;;;;8.68;5.22;;;;;;;;;;5059830;28;20502;-80
2022/03/20 06:28:40;;;;;;;7.90;4.78;;;;;;;;;;5059326;28;20055;-81
2022/03/20 06:31:10;;;;;;;6.03;4.45;;;;;;;;;;5076129;28;20451;-80
2022/03/20 06:33:36;;;;;;;5.93;4.57;;;;;;;;;;5092413;28;20574;-81
2022/03/20 06:36:02;;;;;;;8.10;5.38;;;;;;;;;;5071612;28;20032;-81
2022/03/20 06:38:27;;;;;;;7.88;4.72;;;;;;;;;;5076003;28;20036;-81
2022/03/20 06:40:53;;;;;;;8.05;5.05;;;;;;;;;;5059322;28;20036;-81
2022/03/20 06:43:19;;;;;;;9.23;5.50;;;;;;;;;;5076000;28;20066;-81
2022/03/20 06:45:45;;;;;;;9.23;5.57;;;;;;;;;;5058890;28;20043;-82
2022/03/20 06:48:10;;;;;;;7.72;5.30;;;;;;;;;;5042247;28;20044;-80
2022/03/20 06:50:36;;;;;;;7.10;5.43;;;;;;;;;;5058647;28;20406;-79
2022/03/20 06:53:04;;;;;;;8.48;5.18;;;;;;;;;;5075152;28;20032;-79
2022/03/20 06:55:30;;;;;;;7.00;5.05;;;;;;;;;;5076821;28;20552;-79
2022/03/20 06:57:56;;;;;;;7.53;5.05;;;;;;;;;;5072060;28;20405;-79
2022/03/20 07:00:23;;;;;;;9.68;5.07;;;;;;;;;;5061280;28;20047;-79
2022/03/20 07:02:48;;;;;;;7.28;5.05;;;;;;;;;;5078971;28;20085;-79
2022/03/20 07:05:15;;;;;;;9.52;5.22;;;;;;;;;;5078559;28;20023;-80
2022/03/20 07:07:42;;;;;;;8.10;5.38;;;;;;;;;;5094188;28;20028;-80
2022/03/20 07:10:09;;;;;;;8.15;5.30;;;;;;;;;;5059156;28;20064;-79
2022/03/20 07:12:34;;;;;;;8.50;4.97;;;;;;;;;;5095287;28;20031;-80
2022/03/20 07:15:00;;;;;;;9.10;5.43;;;;;;;;;;5095801;28;20041;-79
2022/03/20 07:17:25;;;;;;;9.80;4.97;;;;;;;;;;5077683;28;20529;-79
2022/03/20 07:19:51;;;;;;;9.38;5.53;;;;;;;;;;5075866;28;20036;-79
2022/03/20 07:22:20;;;;;;;8.15;5.28;;;;;;;;;;5094528;28;20047;-80
2022/03/20 07:24:46;;;;;;;7.43;4.90;;;;;;;;;;5060788;28;20030;-80
2022/03/20 07:29:56;;;;;;;7.47;5.65;;;;;;;;;;5098083;28;20063;-79
2022/03/20 07:32:21;;;;;;;8.35;5.57;;;;;;;;;;5095231;28;20566;-78
2022/03/20 07:34:47;;;;;;;12.80;6.95;;;;;;;;;;5091822;28;20432;-79
2022/03/20 07:37:19;;;;;;;21.15;6.85;;;;;;;;;;5058291;28;20110;-78
2022/03/20 07:39:49;;;;;;;16.35;6.57;;;;;;;;;;5060228;28;20036;-78
2022/03/20 07:42:14;;;;;;;19.45;7.72;;;;;;;;;;5070076;28;20051;-79
2022/03/20 07:44:40;;;;;;;19.08;8.30;;;;;;;;;;5091420;28;20028;-79
2022/03/20 07:47:08;;;;;;;18.70;8.82;;;;;;;;;;5074461;28;20067;-79
2022/03/20 07:49:37;;;;;;;19.05;8.50;;;;;;;;;;5075123;28;20449;-79
2022/03/20 07:52:04;;;;;;;12.25;8.10;;;;;;;;;;5082230;28;20032;-79
2022/03/20 07:54:29;;;;;;;15.00;8.93;;;;;;;;;;5094380;28;20023;-79
2022/03/20 07:56:55;;;;;;;14.88;8.48;;;;;;;;;;5074568;28;20157;-79
2022/03/20 07:59:21;;;;;;;13.60;8.82;;;;;;;;;;5063371;28;20032;-79
2022/03/20 08:01:46;;;;;;;13.02;8.55;;;;;;;;;;5094196;28;20034;-79
2022/03/20 08:04:11;;;;;;;12.18;9.23;;;;;;;;;;5094912;28;20035;-79
2022/03/20 08:06:37;;;;;;;11.88;8.93;;;;;;;;;;5076300;28;20036;-79
2022/03/20 08:09:03;;;;;;;14.77;8.73;;;;;;;;;;5074028;28;20062;-79
2022/03/20 08:11:29;;;;;;;14.48;8.50;;;;;;;;;;5058106;28;20051;-79
2022/03/20 08:13:55;;;;;;;42.28;11.95;;;;;;;;;;5074786;28;20067;-79
2022/03/20 08:16:26;;;;;;;19.40;8.95;;;;;;;;;;5057550;28;20494;-81
2022/03/20 08:18:56;;;;;;;29.40;10.05;;;;;;;;;;5075041;28;20123;-78
2022/03/20 08:21:21;;;;;;;26.70;10.02;;;;;;;;;;5074198;28;20028;-79
2022/03/20 08:23:47;;;;;;;27.92;9.55;;;;;;;;;;5073966;28;20498;-79
2022/03/20 08:26:12;;;;;;;20.50;8.88;;;;;;;;;;5058196;28;20043;-79
2022/03/20 08:28:45;;;;;;;15.77;9.70;;;;;;;;;;5057509;28;20075;-79
2022/03/20 08:31:11;;;;;;;22.75;9.20;;;;;;;;;;5074674;28;20424;-79
2022/03/20 08:33:37;;;;;;;22.17;8.25;;;;;;;;;;5074178;28;20028;-79
2022/03/20 08:36:04;;;;;;;17.05;8.73;;;;;;;;;;5052937;28;20044;-79
2022/03/20 08:38:29;;;;;;;22.08;8.77;;;;;;;;;;5073794;28;20077;-79
2022/03/20 08:40:55;;;;;;;19.73;9.73;;;;;;;;;;5073773;28;20466;-79
2022/03/20 08:43:21;;;;;;;15.27;8.25;;;;;;;;;;5074095;28;20112;-79
2022/03/20 08:45:47;;;;;;;14.02;8.20;;;;;;;;;;5073540;28;20080;-79
2022/03/20 08:48:12;;;;;;;13.32;8.07;;;;;;;;;;5073625;28;20429;-79
2022/03/20 08:50:37;;;;;;;20.45;8.15;;;;;;;;;;5073892;28;20039;-79
2022/03/20 08:53:03;;;;;;;16.00;7.95;;;;;;;;;;5073285;28;20044;-79
2022/03/20 08:55:31;;;;;;;16.58;8.02;;;;;;;;;;5073185;28;20044;-79
2022/03/20 08:57:56;;;;;;;20.55;8.43;;;;;;;;;;5077844;28;20037;-79
2022/03/20 09:00:22;;;;;;;25.27;9.50;;;;;;;;;;5073835;28;20040;-78
2022/03/20 09:02:49;;;;;;;17.92;8.32;;;;;;;;;;5069332;28;20432;-78
2022/03/20 09:05:14;;;;;;;21.33;8.73;;;;;;;;;;5055722;28;20044;-79
2022/03/20 09:07:43;;;;;;;14.60;7.88;;;;;;;;;;5055907;28;20115;-80
2022/03/20 09:10:09;;;;;;;16.90;7.70;;;;;;;;;;5074108;28;20043;-80
2022/03/20 09:12:34;;;;;;;14.63;7.97;;;;;;;;;;5090319;28;20406;-81
2022/03/20 09:15:02;;;;;;;13.93;7.22;;;;;;;;;;5057291;28;20028;-81
2022/03/20 09:20:11;;;;;;;14.10;6.90;;;;;;;;;;5078102;28;20052;-80
2022/03/20 09:22:37;;;;;;;14.57;8.13;;;;;;;;;;5072872;28;20101;-79
2022/03/20 09:25:04;;;;;;;16.98;8.57;;;;;;;;;;5073553;28;20024;-79
2022/03/20 09:27:29;;;;;;;16.95;7.88;;;;;;;;;;5057350;28;20405;-80
2022/03/20 09:29:55;;;;;;;12.55;7.50;;;;;;;;;;5073319;28;20039;-79
2022/03/20 09:32:20;;;;;;;15.93;8.52;;;;;;;;;;5089864;28;20032;-80
2022/03/20 09:34:46;;;;;;;11.70;7.13;;;;;;;;;;5091633;28;20032;-80
2022/03/20 09:37:11;;;;;;;10.77;7.43;;;;;;;;;;5073280;28;20577;-79
2022/03/20 09:39:37;;;;;;;16.33;7.70;;;;;;;;;;5056828;28;20039;-79
2022/03/20 09:42:03;;;;;;;13.80;8.05;;;;;;;;;;5056458;28;20047;-79
2022/03/20 09:44:29;;;;;;;12.43;7.22;;;;;;;;;;5056594;28;20154;-79
2022/03/20 09:46:55;;;;;;;14.18;7.38;;;;;;;;;;5056453;28;20083;-80
2022/03/20 09:49:22;;;;;;;11.77;7.03;;;;;;;;;;5090160;28;20039;-79
2022/03/20 09:51:49;;;;;;;10.25;6.65;;;;;;;;;;5078130;28;20056;-78
2022/03/20 09:54:14;;;;;;;11.00;6.70;;;;;;;;;;5089790;28;20383;-78
2022/03/20 09:56:43;;;;;;;11.35;7.60;;;;;;;;;;5059219;28;20123;-78
2022/03/20 09:59:09;;;;;;;10.77;6.80;;;;;;;;;;5073144;28;20028;-78
2022/03/20 10:01:35;;;;;;;12.43;7.28;;;;;;;;;;5078100;28;20084;-78
2022/03/20 10:04:07;;;;;;;9.88;7.35;;;;;;;;;;5076305;28;20039;-77
2022/03/20 10:06:36;;;;;;;12.45;6.70;;;;;;;;;;5110284;28;20047;-78
2022/03/20 10:09:06;;;;;;;10.82;6.78;;;;;;;;;;5080421;28;20024;-77
2022/03/20 10:11:32;;;;;;;8.98;6.43;;;;;;;;;;5074939;28;20039;-77
2022/03/20 10:14:14;;;;;;;10.27;7.97;;;;;;;;;;5096715;28;20038;-77
2022/03/20 10:16:45;;;;;;;9.88;7.20;;;;;;;;;;5113051;28;20043;-78
2022/03/20 10:19:23;;;;;;;8.45;6.25;;;;;;;;;;5113082;28;20085;-78
2022/03/20 10:22:07;;;;;;;11.93;7.40;;;;;;;;;;5113189;28;20172;-79
2022/03/20 10:24:37;;;;;;;12.30;7.70;;;;;;;;;;5079087;28;20123;-79
2022/03/20 10:27:03;;;;;;;17.73;8.02;;;;;;;;;;5112187;28;20227;-80
2022/03/20 10:29:29;;;;;;;17.00;7.40;;;;;;;;;;5111380;28;20594;-79
2022/03/20 10:31:56;;;;;;;16.00;7.60;;;;;;;;;;5113109;28;20050;-79
2022/03/20 10:34:23;;;;;;;17.40;7.90;;;;;;;;;;5076205;28;20028;-79
2022/03/20 10:36:49;;;;;;;9.23;6.65;;;;;;;;;;5059937;28;20040;-79
2022/03/20 10:39:16;;;;;;;9.70;6.40;;;;;;;;;;5042296;28;20047;-79
2022/03/20 10:41:43;;;;;;;17.90;7.40;;;;;;;;;;5059865;28;20063;-79
2022/03/20 10:44:16;;;;;;;14.70;7.35;;;;;;;;;;5059929;28;20055;-79
2022/03/20 10:46:41;;;;;;;11.77;6.88;;;;;;;;;;5076608;28;20107;-79
2022/03/20 10:49:07;;;;;;;10.30;6.57;;;;;;;;;;5059236;28;20119;-79
2022/03/20 10:51:40;;;;;;;11.60;6.68;;;;;;;;;;5063012;28;20032;-80
2022/03/20 10:54:13;;;;;;;9.40;6.82;;;;;;;;;;5058539;28;20032;-80
2022/03/20 10:56:55;;;;;;;9.82;6.70;;;;;;;;;;5061774;28;20561;-79
2022/03/20 10:59:20;;;;;;;11.35;6.57;;;;;;;;;;5075971;28;20498;-79
2022/03/20 11:01:47;;;;;;;9.45;6.53;;;;;;;;;;5062449;28;20069;-80
2022/03/20 11:04:13;;;;;;;12.15;6.95;;;;;;;;;;5075155;28;20036;-80
2022/03/20 11:06:43;;;;;;;10.65;6.80;;;;;;;;;;5058738;28;20081;-80
2022/03/20 11:09:08;;;;;;;11.25;7.15;;;;;;;;;;5075946;28;20444;-80
2022/03/20 11:11:38;;;;;;;11.13;5.90;;;;;;;;;;5042222;28;20044;-80
2022/03/20 11:14:04;;;;;;;14.07;7.07;;;;;;;;;;5059472;28;20035;-80
2022/03/20 11:16:31;;;;;;;10.00;6.68;;;;;;;;;;5075504;28;20051;-80
2022/03/20 11:18:56;;;;;;;9.18;6.68;;;;;;;;;;5058596;28;20032;-80
2022/03/20 11:21:25;;;;;;;8.80;5.53;;;;;;;;;;5075270;28;20440;-80
2022/03/20 11:23:51;;;;;;;8.35;6.13;;;;;;;;;;5041725;28;20024;-80
2022/03/20 11:26:17;;;;;;;10.65;6.45;;;;;;;;;;5075412;28;20043;-80
2022/03/20 11:28:45;;;;;;;8.63;6.03;;;;;;;;;;5058658;28;20102;-80
2022/03/20 11:31:11;;;;;;;8.50;5.97;;;;;;;;;;5091599;28;20111;-79
2022/03/20 11:33:36;;;;;;;8.45;6.28;;;;;;;;;;5075313;28;20032;-80
2022/03/20 11:36:02;;;;;;;8.25;6.07;;;;;;;;;;5070236;28;20073;-79
2022/03/20 11:38:27;;;;;;;8.77;6.00;;;;;;;;;;5075196;28;20024;-79
2022/03/20 11:41:12;;;;;;;8.85;6.28;;;;;;;;;;5058247;28;20047;-80
2022/03/20 11:43:41;;;;;;;12.55;5.70;;;;;;;;;;5075103;28;20046;-80
2022/03/20 11:46:30;;;;;;;9.35;6.05;;;;;;;;;;5041436;28;20040;-79
2022/03/20 11:49:14;;;;;;;7.47;5.72;;;;;;;;;;5091522;28;20514;-80
2022/03/20 11:52:07;;;;;;;8.55;6.55;;;;;;;;;;5100490;28;20039;-79
2022/03/20 11:54:42;;;;;;;7.30;6.07;;;;;;;;;;5095027;28;20024;-80
2022/03/20 11:57:28;;;;;;;7.35;5.70;;;;;;;;;;5112041;28;20049;-79
2022/03/20 11:59:57;;;;;;;10.10;6.00;;;;;;;;;;5094518;28;20052;-79
2022/03/20 12:02:35;;;;;;;8.05;6.07;;;;;;;;;;5074511;28;20111;-79
2022/03/20 12:05:14;;;;;;;8.25;6.18;;;;;;;;;;5091575;28;20052;-79
2022/03/20 12:07:56;;;;;;;8.25;6.68;;;;;;;;;;5091198;28;20433;-80
2022/03/20 12:10:24;;;;;;;7.53;6.03;;;;;;;;;;5058051;28;20116;-79
2022/03/20 12:13:14;;;;;;;7.28;6.38;;;;;;;;;;5057856;28;20059;-80
2022/03/20 12:15:44;;;;;;;9.30;6.22;;;;;;;;;;5075968;28;20428;-80
2022/03/20 12:18:10;;;;;;;8.43;5.82;;;;;;;;;;5074699;28;20092;-80
2022/03/20 12:20:48;;;;;;;8.13;5.85;;;;;;;;;;5074344;28;20036;-80
2022/03/20 12:23:29;;;;;;;7.43;5.80;;;;;;;;;;5074082;28;20070;-79
2022/03/20 12:25:55;;;;;;;7.72;5.80;;;;;;;;;;5090595;28;20078;-80
2022/03/20 12:28:30;;;;;;;7.20;5.68;;;;;;;;;;5074445;28;20063;-80
2022/03/20 12:30:56;;;;;;;7.78;6.05;;;;;;;;;;5073153;28;20036;-79
2022/03/20 12:33:25;;;;;;;8.82;5.40;;;;;;;;;;5090935;28;20055;-80
2022/03/20 12:35:51;;;;;;;7.10;5.85;;;;;;;;;;5068524;28;20044;-80
2022/03/20 12:38:36;;;;;;;7.60;6.50;;;;;;;;;;5057063;28;20515;-80
2022/03/20 12:41:08;;;;;;;6.90;5.97;;;;;;;;;;5057797;28;20056;-80
2022/03/20 12:43:34;;;;;;;6.80;5.32;;;;;;;;;;5057518;28;20042;-80
2022/03/20 12:46:00;;;;;;;8.05;5.95;;;;;;;;;;5056573;28;20378;-80
2022/03/20 12:48:30;;;;;;;7.45;5.63;;;;;;;;;;5057676;28;20067;-80
2022/03/20 12:51:09;;;;;;;7.68;6.32;;;;;;;;;;5060125;28;20085;-80
2022/03/20 12:53:41;;;;;;;7.43;6.00;;;;;;;;;;5094063;28;20047;-80
2022/03/20 12:56:09;;;;;;;8.20;6.57;;;;;;;;;;5077374;28;20024;-79
2022/03/20 12:58:35;;;;;;;9.05;6.15;;;;;;;;;;5094444;28;20114;-80
2022/03/20 13:01:09;;;;;;;6.45;5.13;;;;;;;;;;5093978;28;20454;-80
2022/03/20 13:03:34;;;;;;;7.53;5.47;;;;;;;;;;5077684;28;20079;-79
2022/03/20 13:06:00;;;;;;;6.38;5.68;;;;;;;;;;5077069;28;20476;-80
2022/03/20 13:08:30;;;;;;;7.60;5.75;;;;;;;;;;5060371;28;20103;-79
2022/03/20 13:11:03;;;;;;;8.10;5.53;;;;;;;;;;5077937;28;20042;-79
2022/03/20 13:13:36;;;;;;;6.38;5.00;;;;;;;;;;5094820;28;20063;-80
2022/03/20 13:16:13;;;;;;;7.57;5.35;;;;;;;;;;5060600;28;20389;-80
2022/03/20 13:18:38;;;;;;;7.22;5.55;;;;;;;;;;5095110;28;20482;-79
2022/03/20 13:21:07;;;;;;;6.05;5.25;;;;;;;;;;5093486;28;20051;-79
2022/03/20 13:23:33;;;;;;;7.75;6.00;;;;;;;;;;5094375;28;20035;-80
2022/03/20 13:25:58;;;;;;;7.43;5.75;;;;;;;;;;5093935;28;20153;-80
2022/03/20 13:28:31;;;;;;;6.93;5.47;;;;;;;;;;5093325;28;20063;-80
2022/03/20 13:31:01;;;;;;;7.20;5.28;;;;;;;;;;5061003;28;20028;-80
2022/03/20 13:33:31;;;;;;;6.25;4.95;;;;;;;;;;5077130;28;20098;-80
2022/03/20 13:35:57;;;;;;;7.05;6.10;;;;;;;;;;5090170;28;20043;-80
2022/03/20 13:38:22;;;;;;;7.47;5.70;;;;;;;;;;5056588;28;20118;-80
2022/03/20 13:40:47;;;;;;;5.28;4.78;;;;;;;;;;5057286;28;20111;-80
2022/03/20 13:43:21;;;;;;;6.68;4.57;;;;;;;;;;5043552;28;20402;-79
2022/03/20 13:45:46;;;;;;;7.18;5.13;;;;;;;;;;5077255;28;20032;-79
2022/03/20 13:48:13;;;;;;;6.05;4.95;;;;;;;;;;5093997;28;20502;-80
2022/03/20 13:50:39;;;;;;;7.03;5.60;;;;;;;;;;5077033;28;20044;-80
2022/03/20 13:53:04;;;;;;;6.80;5.32;;;;;;;;;;5113665;28;20043;-79
2022/03/20 13:55:34;;;;;;;8.07;5.07;;;;;;;;;;5097219;28;20043;-80
2022/03/20 13:58:00;;;;;;;5.50;4.63;;;;;;;;;;5080485;28;20557;-80
2022/03/20 14:00:33;;;;;;;6.30;5.57;;;;;;;;;;5093490;28;20085;-79
2022/03/20 14:02:58;;;;;;;6.63;5.00;;;;;;;;;;5097131;28;20050;-80
2022/03/20 14:05:24;;;;;;;5.60;4.47;;;;;;;;;;5114111;28;20040;-79
2022/03/20 14:08:08;;;;;;;5.15;4.60;;;;;;;;;;5080102;28;20043;-79
2022/03/20 14:10:35;;;;;;;5.63;4.95;;;;;;;;;;5114197;28;20031;-80
2022/03/20 14:13:21;;;;;;;5.03;4.40;;;;;;;;;;5097334;28;20421;-79
2022/03/20 14:16:06;;;;;;;6.13;5.35;;;;;;;;;;5098021;28;20065;-80
2022/03/20 14:18:36;;;;;;;6.47;4.55;;;;;;;;;;5081417;28;20508;-80
2022/03/20 14:21:19;;;;;;;5.65;4.30;;;;;;;;;;5096522;28;20043;-80
2022/03/20 14:23:57;;;;;;;6.03;5.13;;;;;;;;;;5080365;28;20024;-80
2022/03/20 14:26:24;;;;;;;5.05;4.30;;;;;;;;;;5096695;28;20035;-80
2022/03/20 14:29:05;;;;;;;5.47;4.82;;;;;;;;;;5079971;28;20039;-80
2022/03/20 14:39:48;;;;;;;5.63;4.80;;;;;;;;;;5084564;28;20039;-80
2022/03/20 14:42:27;;;;;;;5.00;3.80;;;;;;;;;;5079973;28;20106;-80
2022/03/20 14:44:52;;;;;;;5.00;4.25;;;;;;;;;;5096148;28;20524;-79
2022/03/20 14:47:19;;;;;;;6.32;5.35;;;;;;;;;;5079587;28;20035;-79
2022/03/20 14:49:45;;;;;;;5.32;4.35;;;;;;;;;;5079577;28;20039;-79
2022/03/20 14:52:12;;;;;;;5.07;4.15;;;;;;;;;;5112530;28;20110;-79
2022/03/20 14:54:37;;;;;;;5.70;4.57;;;;;;;;;;5095615;28;20111;-80
2022/03/20 14:57:05;;;;;;;5.47;4.22;;;;;;;;;;5096129;28;20110;-79
2022/03/20 14:59:30;;;;;;;6.10;4.28;;;;;;;;;;5076083;28;20047;-79
2022/03/20 15:01:56;;;;;;;5.97;4.18;;;;;;;;;;5063943;28;20500;-79
2022/03/20 15:04:21;;;;;;;6.00;4.50;;;;;;;;;;5059310;28;20048;-80
2022/03/20 15:06:52;;;;;;;5.93;4.10;;;;;;;;;;5075433;28;20038;-80
2022/03/20 15:12:02;;;;;;;4.93;4.20;;;;;;;;;;5078492;28;20036;-80
2022/03/20 15:14:27;;;;;;;6.82;4.32;;;;;;;;;;5075477;28;20047;-79
2022/03/20 15:16:53;;;;;;;3.95;3.58;;;;;;;;;;5092448;28;20089;-79
2022/03/20 15:19:18;;;;;;;5.30;3.80;;;;;;;;;;5042131;28;20040;-79
2022/03/20 15:21:44;;;;;;;5.28;4.00;;;;;;;;;;5075295;28;20111;-80
2022/03/20 15:24:09;;;;;;;5.35;4.13;;;;;;;;;;5074863;28;20494;-80
2022/03/20 15:26:35;;;;;;;4.38;3.75;;;;;;;;;;5075624;28;20035;-79